sensor_id;sensor_type;location;lat;lon;timestamp;P1;durP1;ratioP1;P2;durP2;ratioP2
78670;SDS011;68277;52.724;6.516;2024-03-08T00:00:19;11.35;;;6.82;;
78670;SDS011;68277;52.724;6.516;2024-03-08T00:02:45;7.88;;;5.07;;
78670;SDS011;68277;52.724;6.516;2024-03-08T00:05:11;11.25;;;4.68;;
78670;SDS011;68277;52.724;6.516;2024-03-08T00:07:38;5.68;;;4.85;;
78670;SDS011;68277;52.724;6.516;2024-03-08T00:10:05;12.13;;;4.93;;
78670;SDS011;68277;52.724;6.516;2024-03-08T00:12:43;15.30;;;4.75;;
78670;SDS011;68277;52.724;6.516;2024-03-08T00:15:10;10.48;;;6.20;;
78670;SDS011;68277;52.724;6.516;2024-03-08T00:17:39;10.02;;;4.20;;
78670;SDS011;68277;52.724;6.516;2024-03-08T00:20:05;9.82;;;5.20;;
78670;SDS011;68277;52.724;6.516;2024-03-08T00:22:33;6.43;;;2.95;;
78670;SDS011;68277;52.724;6.516;2024-03-08T00:25:05;4.85;;;4.18;;
78670;SDS011;68277;52.724;6.516;2024-03-08T00:27:34;7.32;;;3.85;;
78670;SDS011;68277;52.724;6.516;2024-03-08T00:29:59;5.32;;;4.43;;
78670;SDS011;68277;52.724;6.516;2024-03-08T00:32:26;8.15;;;5.00;;
78670;SDS011;68277;52.724;6.516;2024-03-08T00:34:53;8.15;;;4.32;;
78670;SDS011;68277;52.724;6.516;2024-03-08T00:37:21;11.93;;;4.97;;
78670;SDS011;68277;52.724;6.516;2024-03-08T00:39:50;13.70;;;5.57;;
78670;SDS011;68277;52.724;6.516;2024-03-08T00:42:19;11.77;;;4.97;;
78670;SDS011;68277;52.724;6.516;2024-03-08T00:44:45;11.55;;;4.90;;
78670;SDS011;68277;52.724;6.516;2024-03-08T00:47:11;9.68;;;3.60;;
78670;SDS011;68277;52.724;6.516;2024-03-08T00:49:37;14.73;;;5.22;;
78670;SDS011;68277;52.724;6.516;2024-03-08T00:52:04;7.97;;;5.10;;
78670;SDS011;68277;52.724;6.516;2024-03-08T00:54:33;15.32;;;7.45;;
78670;SDS011;68277;52.724;6.516;2024-03-08T00:57:00;8.65;;;4.47;;
78670;SDS011;68277;52.724;6.516;2024-03-08T00:59:30;6.95;;;3.08;;
78670;SDS011;68277;52.724;6.516;2024-03-08T01:01:59;7.65;;;3.15;;
78670;SDS011;68277;52.724;6.516;2024-03-08T01:04:25;7.03;;;4.30;;
78670;SDS011;68277;52.724;6.516;2024-03-08T01:06:54;9.88;;;3.10;;
78670;SDS011;68277;52.724;6.516;2024-03-08T01:09:22;4.00;;;3.08;;
78670;SDS011;68277;52.724;6.516;2024-03-08T01:11:48;4.47;;;3.70;;
78670;SDS011;68277;52.724;6.516;2024-03-08T01:14:14;11.93;;;5.40;;
78670;SDS011;68277;52.724;6.516;2024-03-08T01:16:40;9.70;;;4.13;;
78670;SDS011;68277;52.724;6.516;2024-03-08T01:19:06;7.28;;;5.07;;
78670;SDS011;68277;52.724;6.516;2024-03-08T01:21:32;19.23;;;3.70;;
78670;SDS011;68277;52.724;6.516;2024-03-08T01:23:57;24.58;;;4.45;;
78670;SDS011;68277;52.724;6.516;2024-03-08T01:26:23;7.43;;;4.95;;
78670;SDS011;68277;52.724;6.516;2024-03-08T01:28:49;7.38;;;4.82;;
78670;SDS011;68277;52.724;6.516;2024-03-08T01:31:14;11.52;;;6.90;;
78670;SDS011;68277;52.724;6.516;2024-03-08T01:33:41;8.45;;;4.70;;
78670;SDS011;68277;52.724;6.516;2024-03-08T01:36:06;6.22;;;3.47;;
78670;SDS011;68277;52.724;6.516;2024-03-08T01:38:32;10.52;;;5.25;;
78670;SDS011;68277;52.724;6.516;2024-03-08T01:40:58;9.48;;;3.50;;
78670;SDS011;68277;52.724;6.516;2024-03-08T01:43:26;7.28;;;5.03;;
78670;SDS011;68277;52.724;6.516;2024-03-08T01:46:03;7.57;;;3.53;;
78670;SDS011;68277;52.724;6.516;2024-03-08T01:48:29;7.95;;;6.15;;
78670;SDS011;68277;52.724;6.516;2024-03-08T01:50:55;6.93;;;4.80;;
78670;SDS011;68277;52.724;6.516;2024-03-08T01:53:23;10.45;;;5.13;;
78670;SDS011;68277;52.724;6.516;2024-03-08T01:55:49;6.25;;;4.00;;
78670;SDS011;68277;52.724;6.516;2024-03-08T01:58:19;7.00;;;3.85;;
78670;SDS011;68277;52.724;6.516;2024-03-08T02:00:47;10.68;;;5.13;;
78670;SDS011;68277;52.724;6.516;2024-03-08T02:03:16;11.23;;;5.47;;
78670;SDS011;68277;52.724;6.516;2024-03-08T02:05:42;6.47;;;3.60;;
78670;SDS011;68277;52.724;6.516;2024-03-08T02:08:10;4.47;;;4.03;;
78670;SDS011;68277;52.724;6.516;2024-03-08T02:10:40;6.63;;;4.25;;
78670;SDS011;68277;52.724;6.516;2024-03-08T02:15:51;7.80;;;3.00;;
78670;SDS011;68277;52.724;6.516;2024-03-08T02:18:24;9.65;;;5.07;;
78670;SDS011;68277;52.724;6.516;2024-03-08T02:20:51;6.78;;;4.82;;
78670;SDS011;68277;52.724;6.516;2024-03-08T02:23:18;12.70;;;4.55;;
78670;SDS011;68277;52.724;6.516;2024-03-08T02:25:44;7.57;;;4.10;;
78670;SDS011;68277;52.724;6.516;2024-03-08T02:28:11;8.10;;;4.93;;
78670;SDS011;68277;52.724;6.516;2024-03-08T02:33:03;9.27;;;4.18;;
78670;SDS011;68277;52.724;6.516;2024-03-08T02:35:33;15.18;;;4.03;;
78670;SDS011;68277;52.724;6.516;2024-03-08T02:38:03;6.38;;;2.92;;
78670;SDS011;68277;52.724;6.516;2024-03-08T02:40:29;5.57;;;3.25;;
78670;SDS011;68277;52.724;6.516;2024-03-08T02:42:55;9.52;;;3.92;;
78670;SDS011;68277;52.724;6.516;2024-03-08T02:45:20;7.72;;;3.10;;
78670;SDS011;68277;52.724;6.516;2024-03-08T02:47:46;12.70;;;4.50;;
78670;SDS011;68277;52.724;6.516;2024-03-08T02:50:17;14.70;;;5.28;;
78670;SDS011;68277;52.724;6.516;2024-03-08T02:52:43;11.90;;;5.03;;
78670;SDS011;68277;52.724;6.516;2024-03-08T02:55:09;8.65;;;3.75;;
78670;SDS011;68277;52.724;6.516;2024-03-08T02:57:35;10.18;;;4.53;;
78670;SDS011;68277;52.724;6.516;2024-03-08T03:00:02;12.68;;;6.18;;
78670;SDS011;68277;52.724;6.516;2024-03-08T03:02:28;6.82;;;4.75;;
78670;SDS011;68277;52.724;6.516;2024-03-08T03:04:54;8.82;;;4.57;;
78670;SDS011;68277;52.724;6.516;2024-03-08T03:07:21;13.52;;;5.35;;
78670;SDS011;68277;52.724;6.516;2024-03-08T03:09:46;7.30;;;5.22;;
78670;SDS011;68277;52.724;6.516;2024-03-08T03:12:12;8.55;;;5.55;;
78670;SDS011;68277;52.724;6.516;2024-03-08T03:14:39;7.43;;;4.10;;
78670;SDS011;68277;52.724;6.516;2024-03-08T03:17:04;6.22;;;4.72;;
78670;SDS011;68277;52.724;6.516;2024-03-08T03:19:30;8.60;;;4.88;;
78670;SDS011;68277;52.724;6.516;2024-03-08T03:21:56;9.23;;;4.20;;
78670;SDS011;68277;52.724;6.516;2024-03-08T03:24:22;6.70;;;5.40;;
78670;SDS011;68277;52.724;6.516;2024-03-08T03:26:48;14.48;;;4.43;;
78670;SDS011;68277;52.724;6.516;2024-03-08T03:29:15;5.88;;;3.95;;
78670;SDS011;68277;52.724;6.516;2024-03-08T03:31:42;4.72;;;4.13;;
78670;SDS011;68277;52.724;6.516;2024-03-08T03:34:10;9.18;;;2.95;;
78670;SDS011;68277;52.724;6.516;2024-03-08T03:36:37;15.57;;;6.38;;
78670;SDS011;68277;52.724;6.516;2024-03-08T03:39:07;11.95;;;6.32;;
78670;SDS011;68277;52.724;6.516;2024-03-08T03:41:41;4.70;;;4.30;;
78670;SDS011;68277;52.724;6.516;2024-03-08T03:44:07;8.55;;;5.13;;
78670;SDS011;68277;52.724;6.516;2024-03-08T03:46:37;9.10;;;5.22;;
78670;SDS011;68277;52.724;6.516;2024-03-08T03:49:09;8.13;;;5.45;;
78670;SDS011;68277;52.724;6.516;2024-03-08T03:51:34;11.13;;;4.80;;
78670;SDS011;68277;52.724;6.516;2024-03-08T03:54:00;11.40;;;4.60;;
78670;SDS011;68277;52.724;6.516;2024-03-08T03:56:26;8.43;;;3.15;;
78670;SDS011;68277;52.724;6.516;2024-03-08T03:58:52;6.03;;;4.03;;
78670;SDS011;68277;52.724;6.516;2024-03-08T04:01:20;5.50;;;3.03;;
78670;SDS011;68277;52.724;6.516;2024-03-08T04:03:46;9.63;;;5.65;;
78670;SDS011;68277;52.724;6.516;2024-03-08T04:06:12;12.90;;;5.95;;
78670;SDS011;68277;52.724;6.516;2024-03-08T04:08:39;11.40;;;3.78;;
78670;SDS011;68277;52.724;6.516;2024-03-08T04:11:05;10.30;;;5.43;;
78670;SDS011;68277;52.724;6.516;2024-03-08T04:13:30;9.93;;;5.35;;
78670;SDS011;68277;52.724;6.516;2024-03-08T04:15:56;5.35;;;3.40;;
78670;SDS011;68277;52.724;6.516;2024-03-08T04:18:22;13.27;;;4.57;;
78670;SDS011;68277;52.724;6.516;2024-03-08T04:20:47;9.85;;;4.57;;
78670;SDS011;68277;52.724;6.516;2024-03-08T04:23:13;9.23;;;5.20;;
78670;SDS011;68277;52.724;6.516;2024-03-08T04:25:39;6.78;;;3.45;;
78670;SDS011;68277;52.724;6.516;2024-03-08T04:28:04;13.60;;;4.97;;
78670;SDS011;68277;52.724;6.516;2024-03-08T04:30:30;11.48;;;5.72;;
78670;SDS011;68277;52.724;6.516;2024-03-08T04:32:55;12.45;;;4.65;;
78670;SDS011;68277;52.724;6.516;2024-03-08T04:35:21;13.55;;;4.85;;
78670;SDS011;68277;52.724;6.516;2024-03-08T04:37:46;6.20;;;4.70;;
78670;SDS011;68277;52.724;6.516;2024-03-08T04:40:12;5.88;;;3.65;;
78670;SDS011;68277;52.724;6.516;2024-03-08T04:42:38;11.55;;;7.13;;
78670;SDS011;68277;52.724;6.516;2024-03-08T04:45:04;11.93;;;5.50;;
78670;SDS011;68277;52.724;6.516;2024-03-08T04:47:30;10.25;;;5.43;;
78670;SDS011;68277;52.724;6.516;2024-03-08T04:49:56;14.57;;;6.10;;
78670;SDS011;68277;52.724;6.516;2024-03-08T04:52:23;9.68;;;4.13;;
78670;SDS011;68277;52.724;6.516;2024-03-08T04:54:49;13.85;;;4.90;;
78670;SDS011;68277;52.724;6.516;2024-03-08T04:57:14;7.13;;;6.20;;
78670;SDS011;68277;52.724;6.516;2024-03-08T04:59:42;6.78;;;3.85;;
78670;SDS011;68277;52.724;6.516;2024-03-08T05:02:08;11.98;;;4.22;;
78670;SDS011;68277;52.724;6.516;2024-03-08T05:04:33;9.90;;;4.35;;
78670;SDS011;68277;52.724;6.516;2024-03-08T05:06:59;12.48;;;4.95;;
78670;SDS011;68277;52.724;6.516;2024-03-08T05:11:54;9.88;;;4.15;;
78670;SDS011;68277;52.724;6.516;2024-03-08T05:14:19;8.77;;;4.13;;
78670;SDS011;68277;52.724;6.516;2024-03-08T05:16:48;6.13;;;4.45;;
78670;SDS011;68277;52.724;6.516;2024-03-08T05:19:19;10.35;;;7.32;;
78670;SDS011;68277;52.724;6.516;2024-03-08T05:21:46;7.55;;;5.43;;
78670;SDS011;68277;52.724;6.516;2024-03-08T05:24:13;11.52;;;6.13;;
78670;SDS011;68277;52.724;6.516;2024-03-08T05:26:40;7.50;;;4.50;;
78670;SDS011;68277;52.724;6.516;2024-03-08T05:29:07;8.65;;;3.90;;
78670;SDS011;68277;52.724;6.516;2024-03-08T05:31:45;16.73;;;7.28;;
78670;SDS011;68277;52.724;6.516;2024-03-08T05:34:13;3.95;;;3.50;;
78670;SDS011;68277;52.724;6.516;2024-03-08T05:36:41;7.35;;;4.78;;
78670;SDS011;68277;52.724;6.516;2024-03-08T05:39:10;10.32;;;5.22;;
78670;SDS011;68277;52.724;6.516;2024-03-08T05:41:37;11.55;;;7.20;;
78670;SDS011;68277;52.724;6.516;2024-03-08T05:44:04;13.30;;;4.90;;
78670;SDS011;68277;52.724;6.516;2024-03-08T05:46:30;12.88;;;5.43;;
78670;SDS011;68277;52.724;6.516;2024-03-08T05:48:55;9.23;;;5.45;;
78670;SDS011;68277;52.724;6.516;2024-03-08T05:51:25;7.97;;;5.32;;
78670;SDS011;68277;52.724;6.516;2024-03-08T05:53:53;11.80;;;5.10;;
78670;SDS011;68277;52.724;6.516;2024-03-08T05:56:21;12.45;;;6.05;;
78670;SDS011;68277;52.724;6.516;2024-03-08T05:58:48;9.15;;;5.40;;
78670;SDS011;68277;52.724;6.516;2024-03-08T06:01:15;10.90;;;5.82;;
78670;SDS011;68277;52.724;6.516;2024-03-08T06:03:44;4.13;;;3.42;;
78670;SDS011;68277;52.724;6.516;2024-03-08T06:06:13;14.60;;;6.28;;
78670;SDS011;68277;52.724;6.516;2024-03-08T06:08:39;11.40;;;5.75;;
78670;SDS011;68277;52.724;6.516;2024-03-08T06:11:05;14.50;;;4.65;;
78670;SDS011;68277;52.724;6.516;2024-03-08T06:13:31;14.27;;;6.65;;
78670;SDS011;68277;52.724;6.516;2024-03-08T06:15:59;10.77;;;5.70;;
78670;SDS011;68277;52.724;6.516;2024-03-08T06:18:26;10.30;;;5.18;;
78670;SDS011;68277;52.724;6.516;2024-03-08T06:20:52;13.45;;;4.63;;
78670;SDS011;68277;52.724;6.516;2024-03-08T06:23:17;12.27;;;6.65;;
78670;SDS011;68277;52.724;6.516;2024-03-08T06:25:44;12.05;;;3.75;;
78670;SDS011;68277;52.724;6.516;2024-03-08T06:28:10;6.50;;;4.63;;
78670;SDS011;68277;52.724;6.516;2024-03-08T06:30:35;8.38;;;4.47;;
78670;SDS011;68277;52.724;6.516;2024-03-08T06:33:01;3.17;;;2.65;;
78670;SDS011;68277;52.724;6.516;2024-03-08T06:35:27;11.02;;;6.32;;
78670;SDS011;68277;52.724;6.516;2024-03-08T06:37:53;7.40;;;5.45;;
78670;SDS011;68277;52.724;6.516;2024-03-08T06:40:18;16.13;;;5.35;;
78670;SDS011;68277;52.724;6.516;2024-03-08T06:42:44;7.93;;;4.50;;
78670;SDS011;68277;52.724;6.516;2024-03-08T06:45:10;11.10;;;5.90;;
78670;SDS011;68277;52.724;6.516;2024-03-08T06:47:37;12.80;;;6.50;;
78670;SDS011;68277;52.724;6.516;2024-03-08T06:50:03;8.32;;;5.22;;
78670;SDS011;68277;52.724;6.516;2024-03-08T06:52:29;8.43;;;4.25;;
78670;SDS011;68277;52.724;6.516;2024-03-08T06:54:55;10.98;;;5.15;;
78670;SDS011;68277;52.724;6.516;2024-03-08T06:57:22;13.20;;;6.88;;
78670;SDS011;68277;52.724;6.516;2024-03-08T06:59:48;10.13;;;4.65;;
78670;SDS011;68277;52.724;6.516;2024-03-08T07:02:14;14.73;;;6.72;;
78670;SDS011;68277;52.724;6.516;2024-03-08T07:04:40;12.65;;;5.57;;
78670;SDS011;68277;52.724;6.516;2024-03-08T07:07:05;14.07;;;8.07;;
78670;SDS011;68277;52.724;6.516;2024-03-08T07:09:37;9.98;;;6.00;;
78670;SDS011;68277;52.724;6.516;2024-03-08T07:12:03;12.45;;;5.95;;
78670;SDS011;68277;52.724;6.516;2024-03-08T07:14:29;13.10;;;7.40;;
78670;SDS011;68277;52.724;6.516;2024-03-08T07:16:56;15.50;;;7.93;;
78670;SDS011;68277;52.724;6.516;2024-03-08T07:19:21;18.10;;;7.57;;
78670;SDS011;68277;52.724;6.516;2024-03-08T07:21:47;14.57;;;7.47;;
78670;SDS011;68277;52.724;6.516;2024-03-08T07:24:13;14.02;;;7.30;;
78670;SDS011;68277;52.724;6.516;2024-03-08T07:26:39;23.50;;;7.60;;
78670;SDS011;68277;52.724;6.516;2024-03-08T07:29:17;10.77;;;6.28;;
78670;SDS011;68277;52.724;6.516;2024-03-08T07:31:43;10.18;;;7.63;;
78670;SDS011;68277;52.724;6.516;2024-03-08T07:37:13;14.88;;;6.43;;
78670;SDS011;68277;52.724;6.516;2024-03-08T07:39:39;14.43;;;8.05;;
78670;SDS011;68277;52.724;6.516;2024-03-08T07:42:05;15.43;;;7.93;;
78670;SDS011;68277;52.724;6.516;2024-03-08T07:44:31;14.48;;;8.30;;
78670;SDS011;68277;52.724;6.516;2024-03-08T07:46:57;16.90;;;7.80;;
78670;SDS011;68277;52.724;6.516;2024-03-08T07:49:24;21.05;;;8.35;;
78670;SDS011;68277;52.724;6.516;2024-03-08T07:51:49;12.52;;;5.68;;
78670;SDS011;68277;52.724;6.516;2024-03-08T07:54:15;17.48;;;9.00;;
78670;SDS011;68277;52.724;6.516;2024-03-08T07:56:41;18.60;;;8.50;;
78670;SDS011;68277;52.724;6.516;2024-03-08T07:59:07;14.35;;;7.00;;
78670;SDS011;68277;52.724;6.516;2024-03-08T08:01:33;14.73;;;6.60;;
78670;SDS011;68277;52.724;6.516;2024-03-08T08:04:00;15.27;;;6.93;;
78670;SDS011;68277;52.724;6.516;2024-03-08T08:06:28;17.38;;;7.38;;
78670;SDS011;68277;52.724;6.516;2024-03-08T08:08:57;15.50;;;7.25;;
78670;SDS011;68277;52.724;6.516;2024-03-08T08:11:25;13.93;;;7.65;;
78670;SDS011;68277;52.724;6.516;2024-03-08T08:13:54;18.33;;;7.82;;
78670;SDS011;68277;52.724;6.516;2024-03-08T08:16:25;13.32;;;7.15;;
78670;SDS011;68277;52.724;6.516;2024-03-08T08:18:51;16.77;;;7.38;;
78670;SDS011;68277;52.724;6.516;2024-03-08T08:21:18;18.08;;;6.97;;
78670;SDS011;68277;52.724;6.516;2024-03-08T08:23:43;18.45;;;8.50;;
78670;SDS011;68277;52.724;6.516;2024-03-08T08:26:10;21.88;;;8.00;;
78670;SDS011;68277;52.724;6.516;2024-03-08T08:28:36;15.88;;;7.43;;
78670;SDS011;68277;52.724;6.516;2024-03-08T08:31:02;14.23;;;7.82;;
78670;SDS011;68277;52.724;6.516;2024-03-08T08:33:29;17.50;;;8.55;;
78670;SDS011;68277;52.724;6.516;2024-03-08T08:35:55;16.92;;;8.57;;
78670;SDS011;68277;52.724;6.516;2024-03-08T08:38:21;16.17;;;7.72;;
78670;SDS011;68277;52.724;6.516;2024-03-08T08:40:48;15.20;;;6.72;;
78670;SDS011;68277;52.724;6.516;2024-03-08T08:43:15;20.17;;;8.00;;
78670;SDS011;68277;52.724;6.516;2024-03-08T08:45:42;15.93;;;7.90;;
78670;SDS011;68277;52.724;6.516;2024-03-08T08:48:08;20.27;;;10.57;;
78670;SDS011;68277;52.724;6.516;2024-03-08T08:50:35;22.42;;;7.97;;
78670;SDS011;68277;52.724;6.516;2024-03-08T08:53:01;20.02;;;9.38;;
78670;SDS011;68277;52.724;6.516;2024-03-08T08:55:28;17.60;;;9.55;;
78670;SDS011;68277;52.724;6.516;2024-03-08T08:57:56;17.63;;;8.55;;
78670;SDS011;68277;52.724;6.516;2024-03-08T09:00:21;19.73;;;9.57;;
78670;SDS011;68277;52.724;6.516;2024-03-08T09:02:52;16.92;;;7.72;;
78670;SDS011;68277;52.724;6.516;2024-03-08T09:05:20;13.80;;;7.40;;
78670;SDS011;68277;52.724;6.516;2024-03-08T09:07:46;19.60;;;8.30;;
78670;SDS011;68277;52.724;6.516;2024-03-08T09:10:12;14.10;;;7.07;;
78670;SDS011;68277;52.724;6.516;2024-03-08T09:12:39;19.88;;;9.40;;
78670;SDS011;68277;52.724;6.516;2024-03-08T09:15:05;15.77;;;8.32;;
78670;SDS011;68277;52.724;6.516;2024-03-08T09:17:33;19.40;;;9.10;;
78670;SDS011;68277;52.724;6.516;2024-03-08T09:19:59;16.90;;;8.27;;
78670;SDS011;68277;52.724;6.516;2024-03-08T09:22:25;18.58;;;8.48;;
78670;SDS011;68277;52.724;6.516;2024-03-08T09:24:51;20.40;;;9.45;;
78670;SDS011;68277;52.724;6.516;2024-03-08T09:27:16;16.95;;;9.30;;
78670;SDS011;68277;52.724;6.516;2024-03-08T09:29:43;19.20;;;9.23;;
78670;SDS011;68277;52.724;6.516;2024-03-08T09:32:09;21.40;;;10.27;;
78670;SDS011;68277;52.724;6.516;2024-03-08T09:34:37;20.17;;;9.57;;
78670;SDS011;68277;52.724;6.516;2024-03-08T09:37:04;15.77;;;7.78;;
78670;SDS011;68277;52.724;6.516;2024-03-08T09:39:30;12.48;;;8.15;;
78670;SDS011;68277;52.724;6.516;2024-03-08T09:41:55;20.17;;;8.68;;
78670;SDS011;68277;52.724;6.516;2024-03-08T09:44:21;18.48;;;9.23;;
78670;SDS011;68277;52.724;6.516;2024-03-08T09:46:48;19.35;;;7.78;;
78670;SDS011;68277;52.724;6.516;2024-03-08T09:49:18;18.73;;;8.38;;
78670;SDS011;68277;52.724;6.516;2024-03-08T09:51:44;20.33;;;9.13;;
78670;SDS011;68277;52.724;6.516;2024-03-08T09:54:11;26.35;;;9.82;;
78670;SDS011;68277;52.724;6.516;2024-03-08T09:59:09;13.88;;;7.70;;
78670;SDS011;68277;52.724;6.516;2024-03-08T10:01:53;17.73;;;8.68;;
78670;SDS011;68277;52.724;6.516;2024-03-08T10:04:24;13.88;;;7.15;;
78670;SDS011;68277;52.724;6.516;2024-03-08T10:06:50;20.48;;;7.63;;
78670;SDS011;68277;52.724;6.516;2024-03-08T10:09:17;19.05;;;9.45;;
78670;SDS011;68277;52.724;6.516;2024-03-08T10:14:09;16.33;;;8.27;;
78670;SDS011;68277;52.724;6.516;2024-03-08T10:16:36;17.45;;;9.50;;
78670;SDS011;68277;52.724;6.516;2024-03-08T10:19:03;19.02;;;9.75;;
78670;SDS011;68277;52.724;6.516;2024-03-08T10:21:31;16.25;;;8.85;;
78670;SDS011;68277;52.724;6.516;2024-03-08T10:23:58;16.15;;;8.35;;
78670;SDS011;68277;52.724;6.516;2024-03-08T10:26:24;18.15;;;8.70;;
78670;SDS011;68277;52.724;6.516;2024-03-08T10:28:55;17.83;;;9.50;;
78670;SDS011;68277;52.724;6.516;2024-03-08T10:31:22;21.25;;;9.02;;
78670;SDS011;68277;52.724;6.516;2024-03-08T10:33:48;16.48;;;9.98;;
78670;SDS011;68277;52.724;6.516;2024-03-08T10:36:14;16.45;;;8.10;;
78670;SDS011;68277;52.724;6.516;2024-03-08T10:38:41;14.15;;;8.02;;
78670;SDS011;68277;52.724;6.516;2024-03-08T10:41:09;19.55;;;9.13;;
78670;SDS011;68277;52.724;6.516;2024-03-08T10:43:45;17.20;;;8.75;;
78670;SDS011;68277;52.724;6.516;2024-03-08T10:49:27;17.85;;;8.82;;
78670;SDS011;68277;52.724;6.516;2024-03-08T10:52:04;19.58;;;9.40;;
78670;SDS011;68277;52.724;6.516;2024-03-08T10:54:36;14.20;;;7.90;;
78670;SDS011;68277;52.724;6.516;2024-03-08T10:57:06;22.33;;;8.85;;
78670;SDS011;68277;52.724;6.516;2024-03-08T10:59:34;18.17;;;8.50;;
78670;SDS011;68277;52.724;6.516;2024-03-08T11:02:11;18.60;;;9.45;;
78670;SDS011;68277;52.724;6.516;2024-03-08T11:04:37;21.40;;;8.23;;
78670;SDS011;68277;52.724;6.516;2024-03-08T11:07:03;14.93;;;7.97;;
78670;SDS011;68277;52.724;6.516;2024-03-08T11:09:33;21.88;;;9.32;;
78670;SDS011;68277;52.724;6.516;2024-03-08T11:15:00;14.15;;;7.57;;
78670;SDS011;68277;52.724;6.516;2024-03-08T11:20:25;19.17;;;8.50;;
78670;SDS011;68277;52.724;6.516;2024-03-08T11:25:36;14.43;;;7.25;;
78670;SDS011;68277;52.724;6.516;2024-03-08T11:28:09;18.90;;;9.85;;
78670;SDS011;68277;52.724;6.516;2024-03-08T11:30:45;16.77;;;8.32;;
78670;SDS011;68277;52.724;6.516;2024-03-08T11:33:24;13.15;;;7.68;;
78670;SDS011;68277;52.724;6.516;2024-03-08T11:35:52;16.65;;;7.88;;
78670;SDS011;68277;52.724;6.516;2024-03-08T11:38:17;15.93;;;8.15;;
78670;SDS011;68277;52.724;6.516;2024-03-08T11:43:15;14.05;;;8.48;;
78670;SDS011;68277;52.724;6.516;2024-03-08T11:45:41;15.32;;;7.93;;
78670;SDS011;68277;52.724;6.516;2024-03-08T11:48:07;14.68;;;8.70;;
78670;SDS011;68277;52.724;6.516;2024-03-08T11:50:38;13.77;;;7.28;;
78670;SDS011;68277;52.724;6.516;2024-03-08T11:53:03;15.13;;;7.07;;
78670;SDS011;68277;52.724;6.516;2024-03-08T11:55:30;13.88;;;6.30;;
78670;SDS011;68277;52.724;6.516;2024-03-08T11:58:05;13.07;;;6.93;;
78670;SDS011;68277;52.724;6.516;2024-03-08T12:00:33;12.35;;;7.65;;
78670;SDS011;68277;52.724;6.516;2024-03-08T12:03:09;14.60;;;8.82;;
78670;SDS011;68277;52.724;6.516;2024-03-08T12:05:35;15.60;;;7.47;;
78670;SDS011;68277;52.724;6.516;2024-03-08T12:08:08;13.32;;;7.20;;
78670;SDS011;68277;52.724;6.516;2024-03-08T12:10:37;17.38;;;8.48;;
78670;SDS011;68277;52.724;6.516;2024-03-08T12:13:03;14.63;;;6.90;;
78670;SDS011;68277;52.724;6.516;2024-03-08T12:15:37;15.13;;;6.72;;
78670;SDS011;68277;52.724;6.516;2024-03-08T12:18:04;17.05;;;8.10;;
78670;SDS011;68277;52.724;6.516;2024-03-08T12:20:30;14.38;;;6.68;;
78670;SDS011;68277;52.724;6.516;2024-03-08T12:22:56;17.95;;;8.25;;
78670;SDS011;68277;52.724;6.516;2024-03-08T12:25:22;13.05;;;6.85;;
78670;SDS011;68277;52.724;6.516;2024-03-08T12:27:51;12.52;;;6.15;;
78670;SDS011;68277;52.724;6.516;2024-03-08T12:30:19;13.77;;;7.25;;
78670;SDS011;68277;52.724;6.516;2024-03-08T12:32:58;20.27;;;9.13;;
78670;SDS011;68277;52.724;6.516;2024-03-08T12:35:29;14.93;;;7.55;;
78670;SDS011;68277;52.724;6.516;2024-03-08T12:37:57;13.07;;;7.22;;
78670;SDS011;68277;52.724;6.516;2024-03-08T12:40:30;12.32;;;6.60;;
78670;SDS011;68277;52.724;6.516;2024-03-08T12:42:58;19.85;;;8.07;;
78670;SDS011;68277;52.724;6.516;2024-03-08T12:45:24;15.50;;;7.72;;
78670;SDS011;68277;52.724;6.516;2024-03-08T12:47:53;17.23;;;7.65;;
78670;SDS011;68277;52.724;6.516;2024-03-08T12:50:20;16.05;;;7.15;;
78670;SDS011;68277;52.724;6.516;2024-03-08T12:52:47;14.98;;;6.78;;
78670;SDS011;68277;52.724;6.516;2024-03-08T12:55:17;14.68;;;6.63;;
78670;SDS011;68277;52.724;6.516;2024-03-08T12:57:43;16.08;;;7.90;;
78670;SDS011;68277;52.724;6.516;2024-03-08T13:00:09;13.15;;;7.82;;
78670;SDS011;68277;52.724;6.516;2024-03-08T13:02:47;12.23;;;6.72;;
78670;SDS011;68277;52.724;6.516;2024-03-08T13:05:13;14.43;;;6.85;;
78670;SDS011;68277;52.724;6.516;2024-03-08T13:07:39;19.77;;;7.05;;
78670;SDS011;68277;52.724;6.516;2024-03-08T13:10:10;10.65;;;5.82;;
78670;SDS011;68277;52.724;6.516;2024-03-08T13:12:39;12.10;;;7.35;;
78670;SDS011;68277;52.724;6.516;2024-03-08T13:15:07;13.48;;;6.82;;
78670;SDS011;68277;52.724;6.516;2024-03-08T13:17:37;13.85;;;7.22;;
78670;SDS011;68277;52.724;6.516;2024-03-08T13:20:05;13.68;;;5.68;;
78670;SDS011;68277;52.724;6.516;2024-03-08T13:22:32;9.43;;;6.38;;
78670;SDS011;68277;52.724;6.516;2024-03-08T13:24:58;12.80;;;7.10;;
78670;SDS011;68277;52.724;6.516;2024-03-08T13:27:26;13.15;;;6.75;;
78670;SDS011;68277;52.724;6.516;2024-03-08T13:29:53;16.67;;;7.65;;
78670;SDS011;68277;52.724;6.516;2024-03-08T13:32:18;14.57;;;6.40;;
78670;SDS011;68277;52.724;6.516;2024-03-08T13:34:45;12.60;;;6.75;;
78670;SDS011;68277;52.724;6.516;2024-03-08T13:37:12;19.35;;;8.23;;
78670;SDS011;68277;52.724;6.516;2024-03-08T13:39:41;12.57;;;7.25;;
78670;SDS011;68277;52.724;6.516;2024-03-08T13:42:09;12.18;;;6.30;;
78670;SDS011;68277;52.724;6.516;2024-03-08T13:44:47;14.95;;;6.35;;
78670;SDS011;68277;52.724;6.516;2024-03-08T13:47:13;21.58;;;7.53;;
78670;SDS011;68277;52.724;6.516;2024-03-08T13:49:42;13.48;;;7.13;;
78670;SDS011;68277;52.724;6.516;2024-03-08T13:52:09;12.27;;;6.38;;
78670;SDS011;68277;52.724;6.516;2024-03-08T13:54:35;15.75;;;6.97;;
78670;SDS011;68277;52.724;6.516;2024-03-08T13:57:02;12.88;;;7.20;;
78670;SDS011;68277;52.724;6.516;2024-03-08T13:59:32;13.75;;;7.47;;
78670;SDS011;68277;52.724;6.516;2024-03-08T14:02:01;20.83;;;8.00;;
78670;SDS011;68277;52.724;6.516;2024-03-08T14:04:28;12.32;;;6.55;;
78670;SDS011;68277;52.724;6.516;2024-03-08T14:06:54;10.85;;;6.78;;
78670;SDS011;68277;52.724;6.516;2024-03-08T14:09:22;16.98;;;7.63;;
78670;SDS011;68277;52.724;6.516;2024-03-08T14:11:57;12.68;;;7.13;;
78670;SDS011;68277;52.724;6.516;2024-03-08T14:14:24;13.32;;;7.20;;
78670;SDS011;68277;52.724;6.516;2024-03-08T14:16:50;15.80;;;8.02;;
78670;SDS011;68277;52.724;6.516;2024-03-08T14:19:20;12.63;;;6.70;;
78670;SDS011;68277;52.724;6.516;2024-03-08T14:21:46;15.25;;;6.93;;
78670;SDS011;68277;52.724;6.516;2024-03-08T14:26:40;16.60;;;7.32;;
78670;SDS011;68277;52.724;6.516;2024-03-08T14:29:07;16.33;;;6.88;;
78670;SDS011;68277;52.724;6.516;2024-03-08T14:31:35;13.77;;;5.90;;
78670;SDS011;68277;52.724;6.516;2024-03-08T14:34:01;14.57;;;7.25;;
78670;SDS011;68277;52.724;6.516;2024-03-08T14:36:28;17.75;;;8.13;;
78670;SDS011;68277;52.724;6.516;2024-03-08T14:38:54;11.07;;;5.75;;
78670;SDS011;68277;52.724;6.516;2024-03-08T14:41:20;15.20;;;7.75;;
78670;SDS011;68277;52.724;6.516;2024-03-08T14:43:51;9.98;;;5.82;;
78670;SDS011;68277;52.724;6.516;2024-03-08T14:46:18;16.70;;;8.02;;
78670;SDS011;68277;52.724;6.516;2024-03-08T14:48:46;12.82;;;6.43;;
78670;SDS011;68277;52.724;6.516;2024-03-08T14:51:12;16.45;;;9.23;;
78670;SDS011;68277;52.724;6.516;2024-03-08T14:56:11;16.23;;;7.72;;
78670;SDS011;68277;52.724;6.516;2024-03-08T14:58:47;12.88;;;6.65;;
78670;SDS011;68277;52.724;6.516;2024-03-08T15:01:17;15.35;;;6.38;;
78670;SDS011;68277;52.724;6.516;2024-03-08T15:03:47;13.27;;;7.40;;
78670;SDS011;68277;52.724;6.516;2024-03-08T15:06:13;12.90;;;7.70;;
78670;SDS011;68277;52.724;6.516;2024-03-08T15:08:40;9.20;;;5.45;;
78670;SDS011;68277;52.724;6.516;2024-03-08T15:11:06;11.52;;;7.25;;
78670;SDS011;68277;52.724;6.516;2024-03-08T15:13:34;14.30;;;7.25;;